Aeroporto :
LOGIN :

Iscrizione | Disclaimer

   EN    FR    IT 

 










Sommario :    VFR   VFR Marginale   IFR   IFR Intensivo   IFR Molto Intensivo
Visibilità : 
Base nubi : 
>= 8 km
>= 3000ft
5 / 8 km
1000 / 3000 ft
1500m / 5 km
500 / 1000 ft
800 / 1500m
200 / 500 ft
< 800m
< 200 ft
Simboli :   Temporali  Nebbia  Neve Forte  Precipitazioni Forti  Vento > 20 kt
SIGMETs :   Varie  Temporali  Ghiacco  Turbolenza  Onda orograficha  Ceneri Vulcaniche






- Altitudine del aeroporto : 1079 ft


ETIK - Illesheim Air Base

ULTIMO METAR :
  • 121756Z 16004KT 9999 FEW020 00/00 A2954 RMK AO2A SLP020 T00020002 10037 20002 57021 $

METARs OBSOLETI :
  • 121656Z 00000KT 9999 SCT012 BKN050 OVC060 01/01 A2957 RMK AO2A SLP029 T00100010 $
  • 121556Z AUTO 21004KT 9999 FEW015 OVC060 03/03 A2959 RMK AO2 SLP034 T00250025 $
  • 121541Z AUTO 20004KT 9999 FEW025 OVC060 03/03 A2959 RMK AO2 SLP034 $

TAF AMD TAF ETIK
Valido dal 12 a 16 ore il 13 a 21 ore UTC


121648Z 1216/1321 24009KT 9999 SCT010 OVC060 QNH2953INS
TEMPO 1216/1222 OVC010
BECMG 1222/1223 24009KT 6000 BR OVC010 QNH2952INS
BECMG 1304/1305 15010G15KT 6000 -RASN BKN050 620505 QNH2950INS
BECMG 1306/1307 17012G18KT 8000 -SN OVC040 620406 QNH2956INS
BECMG 1309/1310 17012G18KT 8000 -SHRA OVC020 620208 QNH2962INS TX05/1313Z TNM02/1302Z



MetMap, La meteo Aeronautica in un colpo d'occhio ! - Copyright ORBIFLY Dicembre 2007 - Disclaimer

ORBIFLY MET'MAP TEAM :

Programmazione e sviluppo : Alexandra Zaïnal
Concezione : Baudouin d'Aumeries
Aiuto per la programmazione : Marc-Olivier Méhu
Supporto tecnico e logistico : Manuel Goepfert
Aiuto per la traduzione : Arnaldo La Scala

Contatto : metmap@orbifly.com




FONTI E CREDITI :

   NOAA